createdAt,value
2023-01-19T00:04:40.411Z,7.97
2023-01-19T00:07:09.921Z,7.50
2023-01-19T00:09:38.846Z,7.07
2023-01-19T00:12:10.729Z,6.88
2023-01-19T00:14:38.877Z,6.80
2023-01-19T00:17:09.678Z,6.25
2023-01-19T00:19:37.980Z,6.43
2023-01-19T00:22:13.502Z,6.75
2023-01-19T00:24:41.820Z,5.80
2023-01-19T00:27:14.162Z,5.85
2023-01-19T00:29:46.979Z,6.00
2023-01-19T00:32:15.076Z,5.65
2023-01-19T00:34:49.678Z,6.78
2023-01-19T00:37:20.779Z,5.72
2023-01-19T00:39:49.073Z,6.10
2023-01-19T00:42:34.797Z,5.55
2023-01-19T00:45:02.916Z,6.22
2023-01-19T00:47:32.238Z,5.82
2023-01-19T00:50:03.414Z,6.18
2023-01-19T00:52:33.388Z,6.30
2023-01-19T00:55:01.339Z,6.25
2023-01-19T00:57:30.161Z,5.18
2023-01-19T01:00:12.268Z,5.07
2023-01-19T01:02:44.015Z,5.85
2023-01-19T01:05:16.985Z,5.85
2023-01-19T01:07:49.605Z,6.20
2023-01-19T01:10:20.202Z,5.65
2023-01-19T01:12:56.415Z,5.88
2023-01-19T01:15:29.758Z,5.93
2023-01-19T01:18:03.476Z,6.22
2023-01-19T01:20:36.239Z,5.50
2023-01-19T01:23:11.931Z,6.30
2023-01-19T01:25:39.920Z,6.20
2023-01-19T01:28:09.501Z,6.38
2023-01-19T01:30:41.253Z,5.88
2023-01-19T01:33:11.727Z,6.32
2023-01-19T01:35:40.973Z,6.03
2023-01-19T01:38:10.907Z,6.53
2023-01-19T01:40:43.701Z,6.28
2023-01-19T01:43:15.759Z,7.45
2023-01-19T01:45:44.119Z,6.23
2023-01-19T01:48:21.316Z,5.53
2023-01-19T01:51:12.306Z,5.97
2023-01-19T01:53:44.611Z,6.03
2023-01-19T01:56:19.128Z,6.05
2023-01-19T01:58:47.701Z,6.53
2023-01-19T02:01:35.487Z,6.30
2023-01-19T02:04:03.783Z,5.85
2023-01-19T02:06:34.153Z,6.15
2023-01-19T02:09:24.818Z,5.93
2023-01-19T02:12:10.443Z,5.57
2023-01-19T02:14:38.746Z,5.82
2023-01-19T02:17:09.108Z,5.82
2023-01-19T02:19:44.429Z,5.88
2023-01-19T02:22:20.192Z,6.20
2023-01-19T02:24:52.306Z,6.35
2023-01-19T02:27:25.347Z,6.60
2023-01-19T02:29:53.667Z,5.55
2023-01-19T02:32:22.004Z,5.30
2023-01-19T02:34:50.218Z,6.22
2023-01-19T02:37:21.932Z,5.82
2023-01-19T02:40:01.845Z,5.95
2023-01-19T02:42:37.304Z,6.45
2023-01-19T02:45:10.180Z,5.95
2023-01-19T02:47:47.128Z,6.15
2023-01-19T02:50:41.754Z,5.63
2023-01-19T02:53:25.574Z,7.13
2023-01-19T02:56:02.697Z,6.43
2023-01-19T02:58:45.978Z,6.18
2023-01-19T03:01:23.121Z,6.32
2023-01-19T03:03:57.880Z,6.82
2023-01-19T03:06:37.746Z,6.68
2023-01-19T03:09:13.951Z,6.85
2023-01-19T03:11:53.870Z,6.88
2023-01-19T03:14:29.341Z,6.60
2023-01-19T03:17:01.091Z,6.57
2023-01-19T03:19:35.041Z,7.30
2023-01-19T03:22:06.683Z,6.53
2023-01-19T03:24:43.191Z,6.97
2023-01-19T03:27:19.994Z,7.43
2023-01-19T03:29:55.073Z,8.05
2023-01-19T03:32:30.260Z,7.15
2023-01-19T03:35:08.634Z,6.55
2023-01-19T03:37:47.221Z,6.70
2023-01-19T03:40:18.733Z,7.10
2023-01-19T03:42:50.513Z,7.10
2023-01-19T03:45:28.291Z,6.75
2023-01-19T03:47:57.291Z,6.97
2023-01-19T03:50:30.685Z,7.07
2023-01-19T03:53:09.988Z,7.95
2023-01-19T03:55:40.413Z,6.18
2023-01-19T03:58:10.430Z,7.15
2023-01-19T04:00:38.642Z,6.82
2023-01-19T04:03:10.518Z,6.25
2023-01-19T04:05:41.251Z,6.82
2023-01-19T04:08:09.360Z,7.25
2023-01-19T04:10:44.479Z,6.57
2023-01-19T04:13:15.953Z,6.90
2023-01-19T04:15:46.765Z,7.05
2023-01-19T04:18:15.100Z,6.97
2023-01-19T04:20:43.179Z,6.07
2023-01-19T04:23:11.156Z,6.40
2023-01-19T04:25:39.131Z,7.15
2023-01-19T04:28:09.403Z,7.43
2023-01-19T04:30:38.959Z,6.95
2023-01-19T04:33:07.096Z,6.72
2023-01-19T04:35:37.837Z,5.70
2023-01-19T04:38:05.855Z,7.05
2023-01-19T04:40:36.087Z,6.35
2023-01-19T04:43:06.555Z,6.30
2023-01-19T04:45:36.709Z,6.03
2023-01-19T04:48:07.781Z,7.40
2023-01-19T04:50:37.696Z,6.82
2023-01-19T04:53:05.745Z,7.25
2023-01-19T04:55:34.013Z,6.63
2023-01-19T04:58:02.097Z,6.88
2023-01-19T05:00:32.630Z,6.93
2023-01-19T05:03:01.645Z,6.07
2023-01-19T05:05:33.128Z,6.05
2023-01-19T05:08:01.594Z,7.03
2023-01-19T05:10:30.555Z,7.00
2023-01-19T05:12:58.721Z,7.20
2023-01-19T05:15:26.904Z,6.90
2023-01-19T05:17:55.252Z,7.03
2023-01-19T05:20:23.224Z,6.88
2023-01-19T05:22:54.719Z,6.85
2023-01-19T05:25:22.744Z,7.18
2023-01-19T05:27:50.701Z,6.43
2023-01-19T05:30:20.515Z,6.93
2023-01-19T05:32:48.653Z,6.88
2023-01-19T05:35:27.797Z,5.90
2023-01-19T05:38:01.905Z,6.72
2023-01-19T05:40:29.877Z,6.75
2023-01-19T05:43:01.128Z,6.63
2023-01-19T05:45:29.753Z,6.50
2023-01-19T05:48:02.652Z,5.80
2023-01-19T05:53:00.556Z,7.20
2023-01-19T05:55:31.353Z,5.60
2023-01-19T05:57:59.338Z,6.30
2023-01-19T06:00:27.759Z,6.30
2023-01-19T06:03:05.024Z,6.00
2023-01-19T06:05:34.028Z,6.70
2023-01-19T06:08:03.742Z,5.63
2023-01-19T06:10:32.802Z,6.25
2023-01-19T06:13:07.303Z,7.07
2023-01-19T06:15:38.145Z,6.10
2023-01-19T06:18:08.591Z,5.97
2023-01-19T06:23:21.748Z,5.90
2023-01-19T06:25:53.074Z,5.65
2023-01-19T06:28:21.251Z,5.70
2023-01-19T06:30:50.275Z,5.35
2023-01-19T06:33:32.156Z,5.97
2023-01-19T06:36:08.095Z,5.50
2023-01-19T06:38:37.610Z,5.63
2023-01-19T06:41:22.522Z,5.93
2023-01-19T06:43:51.183Z,5.80
2023-01-19T06:46:34.949Z,5.65
2023-01-19T06:49:03.241Z,5.55
2023-01-19T06:51:33.972Z,5.32
2023-01-19T06:54:03.481Z,5.35
2023-01-19T06:56:31.613Z,4.97
2023-01-19T06:58:59.693Z,5.38
2023-01-19T07:01:29.701Z,4.63
2023-01-19T07:04:06.771Z,4.90
2023-01-19T07:06:35.179Z,5.13
2023-01-19T07:09:10.191Z,5.40
2023-01-19T07:11:40.986Z,8.18
2023-01-19T07:14:08.976Z,6.15
2023-01-19T07:16:37.120Z,5.85
2023-01-19T07:19:11.836Z,6.05
2023-01-19T07:21:42.429Z,6.20
2023-01-19T07:24:11.784Z,4.63
2023-01-19T07:26:40.216Z,6.35
2023-01-19T07:29:08.163Z,6.32
2023-01-19T07:31:36.827Z,6.45
2023-01-19T07:34:05.619Z,5.75
2023-01-19T07:36:35.959Z,5.15
2023-01-19T07:39:03.900Z,5.70
2023-01-19T07:51:37.643Z,5.53
2023-01-19T07:54:05.749Z,5.72
2023-01-19T07:56:41.505Z,6.10
2023-01-19T07:59:33.631Z,6.20
2023-01-19T08:10:22.727Z,5.80
2023-01-19T08:13:15.508Z,5.85
2023-01-19T08:15:43.836Z,5.25
2023-01-19T08:18:14.845Z,6.00
2023-01-19T08:20:51.517Z,6.80
2023-01-19T08:23:19.756Z,6.88
2023-01-19T08:25:50.165Z,5.50
2023-01-19T08:28:35.475Z,6.38
2023-01-19T08:31:18.324Z,6.63
2023-01-19T08:33:49.606Z,7.68
2023-01-19T08:36:17.630Z,9.23
2023-01-19T08:38:45.779Z,8.75
2023-01-19T08:43:58.471Z,10.23
2023-01-19T08:46:28.822Z,8.65
2023-01-19T08:48:56.729Z,8.82
2023-01-19T08:51:25.872Z,6.57
2023-01-19T08:53:53.694Z,8.95
2023-01-19T08:56:28.246Z,7.10
2023-01-19T08:59:08.077Z,8.18
2023-01-19T09:01:38.224Z,8.02
2023-01-19T09:04:06.822Z,8.50
2023-01-19T09:06:34.782Z,6.22
2023-01-19T09:09:04.839Z,7.10
2023-01-19T09:11:44.309Z,7.78
2023-01-19T09:14:18.228Z,7.50
2023-01-19T09:16:46.005Z,6.50
2023-01-19T09:19:14.193Z,6.95
2023-01-19T09:21:42.192Z,6.35
2023-01-19T09:24:12.980Z,6.63
2023-01-19T09:30:15.241Z,5.30
2023-01-19T09:32:48.694Z,6.45
2023-01-19T09:35:17.267Z,7.47
2023-01-19T09:37:47.402Z,6.80
2023-01-19T09:40:20.249Z,5.53
2023-01-19T09:42:54.544Z,5.28
2023-01-19T09:45:33.409Z,5.25
2023-01-19T09:48:06.525Z,5.85
2023-01-19T09:50:40.139Z,6.05
2023-01-19T09:53:24.431Z,6.88
2023-01-19T09:55:52.378Z,6.95
2023-01-19T09:58:23.898Z,7.20
2023-01-19T10:01:00.231Z,5.88
2023-01-19T10:03:28.111Z,7.18
2023-01-19T10:06:03.662Z,4.97
2023-01-19T10:08:38.144Z,6.68
2023-01-19T10:11:17.201Z,6.50
2023-01-19T10:13:51.871Z,7.50
2023-01-19T10:16:31.584Z,5.60
2023-01-19T10:19:04.088Z,6.55
2023-01-19T10:21:35.933Z,6.95
2023-01-19T10:24:07.778Z,7.40
2023-01-19T10:26:44.036Z,7.55
2023-01-19T10:29:23.050Z,6.95
2023-01-19T10:31:53.941Z,7.70
2023-01-19T10:34:23.678Z,6.95
2023-01-19T10:37:05.845Z,6.45
2023-01-19T10:39:38.860Z,6.53
2023-01-19T10:42:14.038Z,5.50
2023-01-19T10:44:45.860Z,6.05
2023-01-19T10:47:22.914Z,5.63
2023-01-19T10:49:54.197Z,6.82
2023-01-19T10:52:30.053Z,6.22
2023-01-19T10:54:59.612Z,6.13
2023-01-19T10:57:33.103Z,5.70
2023-01-19T11:00:01.165Z,6.53
2023-01-19T11:02:32.204Z,5.82
2023-01-19T11:05:01.962Z,6.30
2023-01-19T11:07:32.662Z,5.10
2023-01-19T11:10:24.096Z,6.03
2023-01-19T11:13:15.823Z,6.32
2023-01-19T11:15:48.022Z,5.85
2023-01-19T11:18:32.708Z,6.70
2023-01-19T11:21:06.531Z,6.32
2023-01-19T11:23:39.403Z,7.18
2023-01-19T11:26:07.551Z,7.53
2023-01-19T11:28:39.031Z,7.18
2023-01-19T11:31:29.185Z,7.68
2023-01-19T11:34:00.494Z,6.40
2023-01-19T11:36:30.768Z,6.53
2023-01-19T11:39:10.255Z,5.38
2023-01-19T11:48:57.523Z,6.18
2023-01-19T11:51:43.159Z,6.82
2023-01-19T11:54:28.367Z,6.68
2023-01-19T11:57:05.987Z,6.75
2023-01-19T11:59:45.234Z,6.10
2023-01-19T12:02:46.522Z,6.60
2023-01-19T12:05:20.911Z,6.32
2023-01-19T12:07:55.756Z,6.70
2023-01-19T12:10:32.033Z,6.88
2023-01-19T12:13:07.722Z,5.88
2023-01-19T12:16:08.051Z,6.57
2023-01-19T12:19:00.777Z,6.75
2023-01-19T12:22:14.477Z,6.82
2023-01-19T12:24:50.993Z,6.55
2023-01-19T12:27:33.766Z,7.13
2023-01-19T12:30:02.086Z,6.45
2023-01-19T12:32:38.856Z,6.57
2023-01-19T12:35:28.123Z,7.43
2023-01-19T12:37:58.099Z,6.95
2023-01-19T12:40:31.452Z,6.30
2023-01-19T12:43:02.195Z,7.95
2023-01-19T12:45:34.887Z,10.98
2023-01-19T12:48:05.379Z,10.05
2023-01-19T12:50:37.859Z,9.45
2023-01-19T12:53:22.522Z,8.00
2023-01-19T12:56:01.519Z,7.82
2023-01-19T12:58:29.924Z,7.97
2023-01-19T13:01:13.748Z,7.90
2023-01-19T13:03:50.147Z,7.75
2023-01-19T13:06:19.988Z,8.30
2023-01-19T13:09:00.389Z,8.98
2023-01-19T13:11:34.296Z,7.90
2023-01-19T13:14:34.995Z,7.93
2023-01-19T13:17:18.254Z,7.88
2023-01-19T13:19:52.807Z,8.50
2023-01-19T13:23:03.972Z,7.25
2023-01-19T13:25:36.856Z,7.03
2023-01-19T13:30:55.346Z,7.25
2023-01-19T13:33:29.204Z,7.68
2023-01-19T13:35:59.708Z,8.45
2023-01-19T13:38:29.074Z,7.28
2023-01-19T13:40:59.704Z,7.57
2023-01-19T13:43:36.340Z,7.65
2023-01-19T13:46:04.775Z,7.20
2023-01-19T13:48:33.627Z,7.03
2023-01-19T13:51:05.884Z,7.88
2023-01-19T13:53:34.706Z,7.32
2023-01-19T13:56:20.711Z,7.30
2023-01-19T13:59:13.010Z,7.25
2023-01-19T14:01:46.214Z,7.05
2023-01-19T14:04:33.056Z,10.50
2023-01-19T14:07:04.042Z,8.77
2023-01-19T14:09:31.936Z,7.72
2023-01-19T14:12:17.641Z,7.57
2023-01-19T14:14:48.325Z,6.38
2023-01-19T14:17:24.659Z,6.82
2023-01-19T14:19:54.055Z,6.47
2023-01-19T14:22:22.376Z,6.15
2023-01-19T14:24:50.520Z,6.53
2023-01-19T14:27:21.475Z,7.45
2023-01-19T14:29:53.830Z,7.07
2023-01-19T14:32:24.616Z,6.40
2023-01-19T14:34:54.878Z,7.10
2023-01-19T14:37:26.534Z,7.07
2023-01-19T14:39:59.129Z,7.07
2023-01-19T14:42:32.960Z,6.90
2023-01-19T14:45:04.788Z,6.68
2023-01-19T14:47:36.854Z,7.20
2023-01-19T14:50:10.980Z,8.07
2023-01-19T14:52:41.850Z,6.05
2023-01-19T14:55:36.242Z,7.18
2023-01-19T14:58:13.425Z,6.88
2023-01-19T15:00:45.790Z,6.50
2023-01-19T15:03:14.798Z,7.03
2023-01-19T15:05:45.271Z,6.97
2023-01-19T15:08:17.679Z,7.28
2023-01-19T15:10:53.567Z,7.20
2023-01-19T15:13:23.829Z,6.80
2023-01-19T15:15:53.312Z,7.22
2023-01-19T15:18:27.310Z,7.38
2023-01-19T15:21:04.291Z,7.57
2023-01-19T15:23:32.552Z,7.45
2023-01-19T15:26:01.612Z,8.00
2023-01-19T15:28:30.600Z,7.50
2023-01-19T15:31:00.972Z,8.60
2023-01-19T15:33:31.317Z,8.57
2023-01-19T15:35:59.665Z,8.60
2023-01-19T15:38:27.810Z,8.57
2023-01-19T15:44:34.446Z,8.65
2023-01-19T15:48:00.209Z,8.90
2023-01-19T15:50:29.647Z,9.27
2023-01-19T15:53:02.882Z,8.98
2023-01-19T15:55:30.596Z,8.65
2023-01-19T15:58:01.631Z,7.47
2023-01-19T16:00:30.161Z,9.48
2023-01-19T16:02:58.294Z,9.15
2023-01-19T16:05:37.630Z,9.70
2023-01-19T16:08:11.844Z,9.98
2023-01-19T16:10:40.455Z,10.32
2023-01-19T16:13:08.777Z,12.80
2023-01-19T16:15:37.010Z,14.68
2023-01-19T16:18:05.146Z,20.45
2023-01-19T16:20:33.294Z,22.13
2023-01-19T16:23:19.045Z,16.55
2023-01-19T16:25:56.272Z,14.07
2023-01-19T16:28:24.380Z,12.55
2023-01-19T16:30:52.779Z,11.73
2023-01-19T16:33:21.882Z,11.48
2023-01-19T16:35:50.033Z,12.02
2023-01-19T16:38:20.663Z,13.98
2023-01-19T16:40:50.154Z,13.45
2023-01-19T16:43:18.677Z,14.57
2023-01-19T16:46:01.057Z,16.05
2023-01-19T16:48:32.344Z,15.73
2023-01-19T16:51:07.489Z,16.00
2023-01-19T16:53:37.239Z,11.82
2023-01-19T16:56:08.256Z,10.57
2023-01-19T16:58:39.440Z,11.90
2023-01-19T17:01:09.153Z,10.25
2023-01-19T17:03:40.864Z,10.20
2023-01-19T17:06:11.434Z,10.68
2023-01-19T17:08:41.052Z,13.05
2023-01-19T17:11:23.073Z,10.90
2023-01-19T17:13:58.009Z,13.45
2023-01-19T17:17:10.044Z,12.30
2023-01-19T17:19:41.009Z,14.10
2023-01-19T17:22:09.006Z,13.43
2023-01-19T17:24:42.354Z,12.90
2023-01-19T17:27:12.778Z,13.70
2023-01-19T17:29:40.818Z,12.27
2023-01-19T17:32:08.880Z,13.27
2023-01-19T17:34:36.919Z,14.68
2023-01-19T17:37:04.885Z,13.30
2023-01-19T17:39:33.765Z,14.63
2023-01-19T17:42:01.601Z,13.07
2023-01-19T17:44:30.927Z,11.98
2023-01-19T17:47:00.028Z,13.13
2023-01-19T17:49:30.219Z,15.43
2023-01-19T17:51:59.356Z,15.02
2023-01-19T17:54:27.134Z,16.63
2023-01-19T17:56:56.258Z,17.48
2023-01-19T17:59:24.159Z,16.92
2023-01-19T18:01:53.828Z,14.40
2023-01-19T18:04:32.532Z,16.08
2023-01-19T18:07:05.764Z,13.35
2023-01-19T18:09:36.769Z,12.90
2023-01-19T18:12:04.934Z,11.63
2023-01-19T18:14:32.688Z,10.98
2023-01-19T18:17:01.818Z,10.13
2023-01-19T18:19:29.830Z,12.20
2023-01-19T18:22:02.377Z,11.52
2023-01-19T18:24:36.282Z,15.00
2023-01-19T18:27:04.302Z,10.38
2023-01-19T18:29:35.318Z,11.25
2023-01-19T18:32:06.473Z,11.93
2023-01-19T18:34:34.526Z,12.07
2023-01-19T18:37:02.542Z,12.93
2023-01-19T18:39:31.187Z,12.75
2023-01-19T18:42:02.957Z,11.07
2023-01-19T18:44:32.518Z,10.80
2023-01-19T18:47:01.478Z,11.57
2023-01-19T18:49:31.067Z,11.02
2023-01-19T18:51:59.202Z,10.07
2023-01-19T18:54:32.360Z,12.00
2023-01-19T18:57:02.878Z,13.60
2023-01-19T18:59:33.374Z,10.77
2023-01-19T19:02:01.750Z,10.73
2023-01-19T19:04:31.254Z,10.95
2023-01-19T19:06:59.379Z,9.73
2023-01-19T19:09:38.816Z,10.73
2023-01-19T19:12:09.697Z,21.30
2023-01-19T19:14:37.796Z,19.80
2023-01-19T19:17:10.991Z,18.67
2023-01-19T19:19:40.560Z,17.42
2023-01-19T19:22:10.798Z,15.43
2023-01-19T19:24:40.496Z,14.77
2023-01-19T19:27:14.025Z,14.05
2023-01-19T19:29:46.400Z,15.50
2023-01-19T19:32:24.698Z,16.08
2023-01-19T19:35:01.608Z,16.23
2023-01-19T19:37:30.377Z,15.73
2023-01-19T19:40:14.411Z,17.15
2023-01-19T19:42:42.710Z,20.88
2023-01-19T19:45:14.913Z,21.67
2023-01-19T19:47:46.429Z,15.13
2023-01-19T19:50:17.248Z,11.77
2023-01-19T19:52:45.320Z,10.70
2023-01-19T19:55:13.612Z,12.60
2023-01-19T19:57:47.360Z,17.10
2023-01-19T20:00:17.728Z,16.35
2023-01-19T20:02:45.518Z,16.05
2023-01-19T20:05:32.711Z,14.90
2023-01-19T20:08:00.817Z,16.33
2023-01-19T20:10:29.966Z,14.32
2023-01-19T20:13:01.539Z,14.05
2023-01-19T20:15:32.442Z,14.20
2023-01-19T20:18:03.781Z,12.10
2023-01-19T20:20:33.141Z,12.13
2023-01-19T20:23:04.692Z,15.05
2023-01-19T20:25:40.487Z,16.77
2023-01-19T20:28:08.485Z,15.88
2023-01-19T20:30:39.403Z,17.23
2023-01-19T20:33:10.433Z,15.57
2023-01-19T20:35:41.099Z,13.02
2023-01-19T20:38:14.076Z,11.88
2023-01-19T20:43:09.678Z,14.68
2023-01-19T20:45:37.484Z,11.98
2023-01-19T20:48:05.858Z,12.27
2023-01-19T20:50:36.961Z,15.52
2023-01-19T20:53:06.367Z,15.18
2023-01-19T20:55:34.160Z,13.82
2023-01-19T20:58:02.016Z,13.20
2023-01-19T21:00:31.771Z,12.93
2023-01-19T21:03:08.324Z,14.50
2023-01-19T21:05:38.791Z,12.00
2023-01-19T21:08:14.453Z,14.45
2023-01-19T21:10:46.226Z,15.82
2023-01-19T21:13:26.327Z,15.90
2023-01-19T21:15:55.890Z,14.50
2023-01-19T21:18:26.488Z,14.45
2023-01-19T21:20:54.625Z,16.63
2023-01-19T21:23:26.320Z,14.95
2023-01-19T21:25:55.634Z,15.80
2023-01-19T21:28:24.228Z,14.90
2023-01-19T21:30:53.343Z,13.63
2023-01-19T21:33:22.627Z,13.52
2023-01-19T21:35:54.279Z,13.95
2023-01-19T21:38:27.125Z,14.10
2023-01-19T21:40:57.869Z,13.30
2023-01-19T21:43:26.686Z,12.75
2023-01-19T21:45:54.571Z,12.82
2023-01-19T21:48:22.492Z,12.20
2023-01-19T21:50:57.896Z,10.18
2023-01-19T21:53:29.081Z,11.27
2023-01-19T21:55:57.041Z,12.25
2023-01-19T21:58:24.928Z,14.70
2023-01-19T22:00:59.224Z,11.88
2023-01-19T22:03:27.326Z,11.38
2023-01-19T22:05:57.576Z,11.77
2023-01-19T22:08:25.562Z,11.27
2023-01-19T22:10:54.781Z,11.75
2023-01-19T22:13:22.604Z,9.95
2023-01-19T22:15:50.366Z,9.23
2023-01-19T22:18:18.594Z,9.38
2023-01-19T22:20:46.386Z,8.80
2023-01-19T22:23:14.338Z,8.70
2023-01-19T22:25:44.126Z,8.52
2023-01-19T22:28:15.970Z,9.50
2023-01-19T22:30:43.861Z,9.98
2023-01-19T22:33:14.938Z,11.82
2023-01-19T22:35:42.886Z,14.38
2023-01-19T22:38:18.654Z,12.68
2023-01-19T22:40:46.502Z,11.35
2023-01-19T22:43:15.634Z,11.75
2023-01-19T22:45:44.060Z,12.20
2023-01-19T22:48:13.223Z,10.93
2023-01-19T22:50:43.390Z,11.57
2023-01-19T22:53:11.266Z,10.65
2023-01-19T22:55:39.219Z,12.65
2023-01-19T22:58:07.197Z,11.50
2023-01-19T23:00:36.552Z,10.25
2023-01-19T23:03:04.527Z,10.80
2023-01-19T23:05:36.325Z,11.25
2023-01-19T23:08:04.460Z,10.98
2023-01-19T23:10:33.201Z,9.95
2023-01-19T23:13:00.999Z,8.25
2023-01-19T23:15:28.832Z,8.52
2023-01-19T23:17:58.020Z,7.80
2023-01-19T23:20:25.824Z,7.63
2023-01-19T23:22:53.674Z,7.28
2023-01-19T23:25:21.585Z,7.47
2023-01-19T23:27:49.464Z,9.52
2023-01-19T23:30:19.325Z,8.68
2023-01-19T23:32:50.869Z,7.47
2023-01-19T23:35:20.008Z,7.85
2023-01-19T23:37:47.970Z,10.18
2023-01-19T23:40:16.333Z,9.07
2023-01-19T23:42:44.141Z,10.80
2023-01-19T23:45:12.559Z,14.48
2023-01-19T23:47:43.268Z,11.15
2023-01-19T23:50:13.070Z,9.20
2023-01-19T23:52:42.433Z,8.55
2023-01-19T23:55:11.498Z,7.63
2023-01-19T23:57:39.787Z,6.78
